Time;durP1;ratioP1;P1;durP2;ratioP2;P2;SDS_P1;SDS_P2;PMS_P1;PMS_P2;Temp;Humidity;BMP_temperature;BMP_pressure;BME280_temperature;BME280_humidity;BME280_pressure;Samples;Min_cycle;Max_cycle;Signal;HPM_P1;HPM_P2
2023/10/16 00:01:57;;;;;;;0.53;0.47;;;;;;;;;;5015187;28;20265;-69
2023/10/16 00:04:24;;;;;;;7.03;0.67;;;;;;;;;;5013621;28;20208;-70
2023/10/16 00:06:51;;;;;;;2.40;0.47;;;;;;;;;;5013650;28;20178;-69
2023/10/16 00:09:22;;;;;;;2.47;0.50;;;;;;;;;;5013631;28;20182;-69
2023/10/16 00:11:49;;;;;;;0.83;0.30;;;;;;;;;;5014546;28;20310;-70
2023/10/16 00:14:23;;;;;;;2.43;0.47;;;;;;;;;;5012411;28;20293;-73
2023/10/16 00:16:50;;;;;;;1.20;0.30;;;;;;;;;;5015377;28;20193;-70
2023/10/16 00:19:17;;;;;;;3.20;0.60;;;;;;;;;;5033244;28;20212;-70
2023/10/16 00:21:45;;;;;;;1.77;0.37;;;;;;;;;;5032845;28;20193;-69
2023/10/16 00:24:13;;;;;;;0.73;0.30;;;;;;;;;;5015476;28;20182;-69
2023/10/16 00:26:49;;;;;;;0.87;0.40;;;;;;;;;;5013324;28;20224;-68
2023/10/16 00:29:22;;;;;;;2.47;0.60;;;;;;;;;;5013371;28;20178;-69
2023/10/16 00:31:58;;;;;;;1.83;0.40;;;;;;;;;;5013019;28;20232;-68
2023/10/16 00:34:26;;;;;;;2.93;0.70;;;;;;;;;;5014761;28;20188;-69
2023/10/16 00:36:56;;;;;;;6.97;0.90;;;;;;;;;;5032816;28;20174;-69
2023/10/16 00:39:28;;;;;;;0.30;0.30;;;;;;;;;;5032844;28;20184;-70
2023/10/16 00:41:57;;;;;;;2.87;0.50;;;;;;;;;;5031319;28;20241;-69
2023/10/16 00:44:25;;;;;;;2.40;0.40;;;;;;;;;;5032712;28;20181;-69
2023/10/16 00:46:53;;;;;;;10.00;0.50;;;;;;;;;;5032390;28;20189;-68
2023/10/16 00:49:21;;;;;;;1.40;0.43;;;;;;;;;;5032603;28;20177;-71
2023/10/16 00:51:49;;;;;;;2.43;0.50;;;;;;;;;;5032374;28;20228;-70
2023/10/16 00:54:28;;;;;;;0.20;0.20;;;;;;;;;;5032566;28;20174;-70
2023/10/16 00:57:07;;;;;;;2.77;0.93;;;;;;;;;;5031788;28;20654;-71
2023/10/16 00:59:35;;;;;;;2.23;0.40;;;;;;;;;;5032388;28;20180;-70
2023/10/16 01:02:15;;;;;;;3.50;0.30;;;;;;;;;;5031973;28;20216;-71
2023/10/16 01:04:43;;;;;;;2.53;0.40;;;;;;;;;;5032304;28;20220;-70
2023/10/16 01:07:16;;;;;;;3.23;0.40;;;;;;;;;;5016843;28;20697;-70
2023/10/16 01:09:43;;;;;;;1.10;0.40;;;;;;;;;;5030859;28;20649;-69
2023/10/16 01:12:11;;;;;;;1.70;0.60;;;;;;;;;;5032390;28;20666;-69
2023/10/16 01:14:39;;;;;;;3.13;0.30;;;;;;;;;;5032357;28;20195;-69
2023/10/16 01:17:10;;;;;;;1.03;0.40;;;;;;;;;;5018815;28;20201;-69
2023/10/16 01:19:38;;;;;;;2.43;0.63;;;;;;;;;;5012321;28;20194;-70
2023/10/16 01:22:11;;;;;;;0.57;0.30;;;;;;;;;;5012378;28;20174;-70
2023/10/16 01:24:43;;;;;;;1.67;0.43;;;;;;;;;;5012448;28;20197;-69
2023/10/16 01:27:25;;;;;;;0.73;0.37;;;;;;;;;;5023013;28;20251;-70
2023/10/16 01:29:53;;;;;;;3.33;0.30;;;;;;;;;;5031603;28;20185;-69
2023/10/16 01:32:21;;;;;;;0.50;0.40;;;;;;;;;;5032038;28;20658;-70
2023/10/16 01:34:50;;;;;;;1.60;0.53;;;;;;;;;;5031935;28;20181;-69
2023/10/16 01:37:18;;;;;;;1.30;0.57;;;;;;;;;;5019990;28;20684;-69
2023/10/16 01:39:49;;;;;;;1.83;0.40;;;;;;;;;;5012089;28;20659;-70
2023/10/16 01:42:18;;;;;;;3.93;0.43;;;;;;;;;;5012064;28;20699;-70
2023/10/16 01:44:45;;;;;;;0.70;0.40;;;;;;;;;;5016955;28;20307;-69
2023/10/16 01:47:16;;;;;;;3.20;0.40;;;;;;;;;;5031538;28;20264;-69
2023/10/16 01:49:44;;;;;;;0.73;0.40;;;;;;;;;;5015004;28;20585;-69
2023/10/16 01:52:14;;;;;;;0.30;0.30;;;;;;;;;;5012097;28;20217;-70
2023/10/16 01:54:42;;;;;;;1.17;0.33;;;;;;;;;;5012278;28;20244;-69
2023/10/16 01:57:12;;;;;;;2.43;0.40;;;;;;;;;;5011995;28;20185;-69
2023/10/16 01:59:42;;;;;;;0.40;0.40;;;;;;;;;;5013798;28;20552;-69
2023/10/16 02:02:11;;;;;;;0.30;0.30;;;;;;;;;;5030513;28;20197;-69
2023/10/16 02:04:38;;;;;;;1.13;0.40;;;;;;;;;;5016266;28;20185;-69
2023/10/16 02:07:06;;;;;;;6.67;0.83;;;;;;;;;;5015200;28;20600;-69
2023/10/16 02:09:38;;;;;;;0.83;0.50;;;;;;;;;;5012521;28;20189;-69
2023/10/16 02:12:14;;;;;;;1.43;0.60;;;;;;;;;;5014520;28;20261;-69
2023/10/16 02:14:41;;;;;;;0.90;0.43;;;;;;;;;;5028592;28;20666;-68
2023/10/16 02:20:13;;;;;;;4.60;0.60;;;;;;;;;;4995243;28;20252;-70
2023/10/16 02:22:40;;;;;;;1.40;0.60;;;;;;;;;;5010965;28;20185;-70
2023/10/16 02:25:17;;;;;;;2.57;0.50;;;;;;;;;;5035356;28;20201;-69
2023/10/16 02:27:44;;;;;;;1.07;0.33;;;;;;;;;;5023259;28;20705;-69
2023/10/16 02:30:35;;;;;;;1.03;0.47;;;;;;;;;;5015301;28;20297;-69
2023/10/16 02:35:47;;;;;;;2.80;0.50;;;;;;;;;;5035152;28;20255;-69
2023/10/16 02:38:14;;;;;;;2.60;0.40;;;;;;;;;;5033880;28;20239;-69
2023/10/16 02:40:44;;;;;;;2.77;0.40;;;;;;;;;;5034024;28;20570;-68
2023/10/16 02:43:18;;;;;;;2.60;0.90;;;;;;;;;;5020227;28;20240;-69
2023/10/16 02:45:55;;;;;;;1.10;0.50;;;;;;;;;;5015115;28;20182;-70
2023/10/16 02:48:22;;;;;;;3.37;0.50;;;;;;;;;;5015305;28;20178;-68
2023/10/16 02:50:54;;;;;;;1.73;0.60;;;;;;;;;;5015113;28;20220;-71
2023/10/16 02:53:26;;;;;;;5.20;0.50;;;;;;;;;;5030166;28;20181;-70
2023/10/16 02:55:57;;;;;;;5.83;0.70;;;;;;;;;;5021679;28;20186;-70
2023/10/16 02:58:31;;;;;;;2.17;0.40;;;;;;;;;;5015154;28;20170;-70
2023/10/16 03:00:59;;;;;;;0.40;0.40;;;;;;;;;;5013529;28;20193;-71
2023/10/16 03:03:27;;;;;;;3.53;0.47;;;;;;;;;;5030365;28;20190;-69
2023/10/16 03:05:55;;;;;;;9.57;0.63;;;;;;;;;;5032850;28;20181;-71
2023/10/16 03:08:32;;;;;;;2.90;0.50;;;;;;;;;;5015454;28;20240;-70
2023/10/16 03:10:59;;;;;;;3.13;0.43;;;;;;;;;;5014585;28;20614;-70
2023/10/16 03:13:27;;;;;;;1.27;0.50;;;;;;;;;;5029981;28;20189;-70
2023/10/16 03:16:40;;;;;;;2.83;0.30;;;;;;;;;;5034508;28;20165;-69
2023/10/16 03:18:44;;;;;;;1.03;0.40;;;;;;;;;;5026928;28;20715;-70
2023/10/16 03:23:46;;;;;;;2.50;0.50;;;;;;;;;;5016875;28;20194;-69
2023/10/16 03:26:25;;;;;;;0.30;0.30;;;;;;;;;;5012576;28;20185;-70
2023/10/16 03:29:05;;;;;;;0.60;0.40;;;;;;;;;;5015614;28;20588;-68
2023/10/16 03:31:42;;;;;;;5.07;0.50;;;;;;;;;;5012944;28;20218;-69
2023/10/16 03:34:11;;;;;;;2.67;0.40;;;;;;;;;;4994914;28;20237;-69
2023/10/16 03:36:39;;;;;;;3.03;0.77;;;;;;;;;;4994663;28;20217;-69
2023/10/16 03:39:10;;;;;;;3.33;0.60;;;;;;;;;;5012496;28;20220;-70
2023/10/16 03:41:39;;;;;;;4.00;0.80;;;;;;;;;;5013638;28;20782;-70
2023/10/16 03:44:17;;;;;;;18.73;2.03;;;;;;;;;;5033630;28;20192;-70
2023/10/16 03:46:48;;;;;;;6.78;0.90;;;;;;;;;;5009192;28;20459;-70
2023/10/16 03:49:16;;;;;;;14.87;2.10;;;;;;;;;;5014192;28;20170;-69
2023/10/16 03:51:44;;;;;;;10.50;1.00;;;;;;;;;;5013916;28;20226;-69
2023/10/16 03:54:13;;;;;;;7.10;1.43;;;;;;;;;;5033572;28;20185;-69
2023/10/16 03:56:41;;;;;;;5.33;0.50;;;;;;;;;;5013523;28;20197;-70
2023/10/16 03:59:11;;;;;;;2.33;0.40;;;;;;;;;;5013847;28;20186;-70
2023/10/16 04:01:39;;;;;;;1.80;0.60;;;;;;;;;;5013643;28;20189;-68
2023/10/16 04:04:12;;;;;;;1.20;0.70;;;;;;;;;;5032838;28;20183;-70
2023/10/16 04:06:39;;;;;;;1.83;0.33;;;;;;;;;;5033435;28;20186;-68
2023/10/16 04:09:09;;;;;;;3.40;0.43;;;;;;;;;;5033384;28;20219;-69
2023/10/16 04:11:37;;;;;;;0.30;0.30;;;;;;;;;;5033235;28;20765;-68
2023/10/16 04:14:09;;;;;;;3.33;0.50;;;;;;;;;;5012634;28;20548;-68
2023/10/16 04:16:54;;;;;;;0.73;0.40;;;;;;;;;;5013537;28;20665;-68
2023/10/16 04:22:07;;;;;;;2.03;0.80;;;;;;;;;;5014138;28;20208;-69
2023/10/16 04:30:47;;;;;;;1.20;0.40;;;;;;;;;;5032395;28;20363;-69
2023/10/16 04:33:23;;;;;;;2.83;0.60;;;;;;;;;;5022058;28;20195;-69
2023/10/16 04:36:49;;;;;;;0.57;0.40;;;;;;;;;;5032779;28;20219;-69
2023/10/16 04:38:53;;;;;;;3.40;0.60;;;;;;;;;;5031931;28;20189;-70
2023/10/16 04:46:54;;;;;;;3.40;0.60;;;;;;;;;;5013091;28;20193;-70
2023/10/16 04:49:20;;;;;;;3.07;0.53;;;;;;;;;;5012890;28;20390;-69
2023/10/16 04:52:01;;;;;;;0.70;0.60;;;;;;;;;;5013176;28;20598;-70
2023/10/16 05:02:40;;;;;;;2.60;0.70;;;;;;;;;;4996943;28;20200;-68
2023/10/16 05:08:31;;;;;;;1.80;0.40;;;;;;;;;;5032661;28;20319;-69
2023/10/16 05:16:36;;;;;;;0.97;0.50;;;;;;;;;;4992955;28;20583;-71
2023/10/16 05:19:03;;;;;;;0.40;0.40;;;;;;;;;;5012629;28;20187;-70
2023/10/16 06:16:35;;;;;;;0.60;0.50;;;;;;;;;;4996330;28;20612;-69
2023/10/16 06:19:07;;;;;;;2.20;0.60;;;;;;;;;;4996108;28;20201;-69
2023/10/16 06:21:37;;;;;;;3.00;0.50;;;;;;;;;;4995872;28;20191;-70
2023/10/16 06:24:17;;;;;;;1.50;0.50;;;;;;;;;;5023119;28;20187;-68
2023/10/16 06:26:46;;;;;;;4.80;0.50;;;;;;;;;;4995919;28;20204;-69
2023/10/16 06:29:13;;;;;;;1.73;0.63;;;;;;;;;;5006118;28;20178;-68
2023/10/16 06:31:49;;;;;;;0.50;0.50;;;;;;;;;;5015370;28;20229;-71
2023/10/16 06:34:16;;;;;;;0.63;0.40;;;;;;;;;;5016054;28;20189;-70
2023/10/16 06:36:44;;;;;;;2.27;0.50;;;;;;;;;;5035089;28;20211;-69
2023/10/16 06:39:22;;;;;;;3.23;0.40;;;;;;;;;;5035191;28;20170;-69
2023/10/16 06:41:53;;;;;;;1.17;0.60;;;;;;;;;;5034795;28;20237;-69
2023/10/16 06:44:27;;;;;;;0.43;0.43;;;;;;;;;;5033986;28;20181;-68
2023/10/16 06:46:59;;;;;;;1.13;0.60;;;;;;;;;;5015206;28;20274;-69
2023/10/16 06:49:37;;;;;;;0.53;0.43;;;;;;;;;;5015136;28;20666;-70
2023/10/16 06:52:05;;;;;;;1.13;0.60;;;;;;;;;;5028146;28;20222;-70
2023/10/16 06:54:37;;;;;;;0.83;0.40;;;;;;;;;;5034562;28;20269;-70
2023/10/16 06:57:13;;;;;;;0.73;0.60;;;;;;;;;;4995434;28;20244;-71
2023/10/16 06:59:41;;;;;;;0.83;0.40;;;;;;;;;;4995296;28;20170;-71
2023/10/16 07:02:33;;;;;;;1.23;0.63;;;;;;;;;;4994598;28;20567;-71
2023/10/16 07:04:57;;;;;;;0.40;0.40;;;;;;;;;;4996064;28;20230;-71
2023/10/16 07:07:24;;;;;;;1.03;0.60;;;;;;;;;;5014584;28;20283;-72
2023/10/16 07:09:51;;;;;;;1.80;0.50;;;;;;;;;;5014716;28;20180;-70
2023/10/16 07:12:19;;;;;;;0.50;0.40;;;;;;;;;;5014636;28;20578;-70
2023/10/16 07:14:57;;;;;;;1.13;0.40;;;;;;;;;;5014790;28;20594;-69
2023/10/16 07:17:28;;;;;;;0.40;0.40;;;;;;;;;;4995078;28;20209;-71
2023/10/16 07:19:59;;;;;;;0.30;0.30;;;;;;;;;;5007434;28;20219;-71
2023/10/16 07:22:32;;;;;;;2.47;0.50;;;;;;;;;;5014545;28;20585;-71
2023/10/16 07:25:22;;;;;;;1.73;0.40;;;;;;;;;;5014578;28;20267;-71
2023/10/16 07:27:48;;;;;;;0.60;0.50;;;;;;;;;;5014242;28;20186;-69
2023/10/16 07:30:25;;;;;;;0.60;0.50;;;;;;;;;;5014377;28;20174;-69
2023/10/16 07:32:54;;;;;;;0.67;0.50;;;;;;;;;;5014307;28;20189;-69
2023/10/16 07:35:22;;;;;;;1.50;0.50;;;;;;;;;;5014222;28;20613;-70
2023/10/16 07:37:58;;;;;;;0.40;0.40;;;;;;;;;;5014204;28;20897;-69
2023/10/16 07:40:25;;;;;;;1.63;0.50;;;;;;;;;;5014339;28;20182;-68
2023/10/16 07:42:53;;;;;;;0.77;0.43;;;;;;;;;;5014045;28;20222;-68
2023/10/16 07:45:21;;;;;;;3.20;0.50;;;;;;;;;;5014009;28;20206;-69
2023/10/16 07:47:51;;;;;;;0.90;0.80;;;;;;;;;;5013963;28;20237;-70
2023/10/16 07:50:19;;;;;;;1.93;0.60;;;;;;;;;;5013919;28;20188;-69
2023/10/16 07:52:46;;;;;;;0.80;0.50;;;;;;;;;;5014143;28;20221;-70
2023/10/16 07:55:32;;;;;;;0.60;0.50;;;;;;;;;;5013732;28;20665;-69
2023/10/16 07:57:59;;;;;;;0.40;0.40;;;;;;;;;;5013822;28;20526;-69
2023/10/16 08:00:27;;;;;;;2.23;0.50;;;;;;;;;;5023275;28;20375;-71
2023/10/16 08:03:04;;;;;;;0.87;0.40;;;;;;;;;;5033282;28;20194;-70
2023/10/16 08:05:31;;;;;;;0.57;0.57;;;;;;;;;;5032570;28;20522;-71
2023/10/16 08:08:00;;;;;;;2.63;0.53;;;;;;;;;;5031458;28;20331;-70
2023/10/16 08:10:42;;;;;;;0.73;0.43;;;;;;;;;;5018795;28;20216;-69
2023/10/16 08:13:12;;;;;;;0.87;0.50;;;;;;;;;;5033368;28;20553;-69
2023/10/16 08:16:06;;;;;;;1.17;0.60;;;;;;;;;;5023280;28;20217;-69
2023/10/16 08:18:32;;;;;;;1.30;0.60;;;;;;;;;;5023486;28;20200;-70
2023/10/16 08:21:08;;;;;;;1.70;0.50;;;;;;;;;;5013866;28;20639;-69
2023/10/16 08:23:35;;;;;;;0.50;0.50;;;;;;;;;;5013057;28;20189;-69
2023/10/16 08:26:27;;;;;;;0.73;0.57;;;;;;;;;;5013226;28;20639;-70
2023/10/16 08:37:57;;;;;;;2.37;0.90;;;;;;;;;;4993079;28;20194;-71
2023/10/16 08:40:35;;;;;;;0.70;0.50;;;;;;;;;;4993768;28;20197;-69
2023/10/16 08:43:09;;;;;;;1.60;0.50;;;;;;;;;;4994143;28;20255;-70
2023/10/16 08:45:49;;;;;;;1.07;0.50;;;;;;;;;;5015501;28;20198;-70
2023/10/16 08:48:19;;;;;;;0.87;0.60;;;;;;;;;;5032963;28;20185;-72
2023/10/16 08:50:53;;;;;;;1.27;0.93;;;;;;;;;;5033602;28;20282;-70
2023/10/16 08:53:30;;;;;;;0.80;0.50;;;;;;;;;;5034095;28;20199;-71
2023/10/16 08:55:59;;;;;;;0.60;0.60;;;;;;;;;;5033872;28;20188;-71
2023/10/16 08:58:26;;;;;;;2.63;0.60;;;;;;;;;;5033718;28;20189;-71
2023/10/16 09:00:55;;;;;;;1.60;0.90;;;;;;;;;;5033985;28;20175;-72
2023/10/16 09:03:26;;;;;;;0.90;0.70;;;;;;;;;;5032216;28;20199;-69
2023/10/16 09:05:55;;;;;;;2.87;1.23;;;;;;;;;;5029886;28;20190;-71
2023/10/16 09:08:22;;;;;;;0.73;0.73;;;;;;;;;;5044043;28;20215;-70
2023/10/16 09:10:49;;;;;;;1.67;0.70;;;;;;;;;;5033743;28;20217;-71
2023/10/16 09:13:17;;;;;;;1.10;0.60;;;;;;;;;;5033749;28;20710;-71
2023/10/16 09:15:48;;;;;;;0.80;0.50;;;;;;;;;;5033745;28;20644;-71
2023/10/16 09:18:15;;;;;;;0.50;0.50;;;;;;;;;;5033606;28;20679;-71
2023/10/16 09:20:43;;;;;;;0.73;0.60;;;;;;;;;;5033606;28;20175;-72
2023/10/16 09:23:13;;;;;;;2.23;1.57;;;;;;;;;;5033455;28;20693;-71
2023/10/16 09:25:47;;;;;;;0.57;0.57;;;;;;;;;;5033708;28;20212;-70
2023/10/16 09:28:22;;;;;;;0.67;0.67;;;;;;;;;;5033790;28;20656;-71
2023/10/16 09:30:50;;;;;;;0.77;0.50;;;;;;;;;;5032235;28;20271;-71
2023/10/16 09:33:20;;;;;;;0.60;0.60;;;;;;;;;;5033582;28;20183;-69
2023/10/16 09:35:48;;;;;;;1.13;0.60;;;;;;;;;;5033491;28;20237;-71
2023/10/16 09:38:18;;;;;;;1.73;0.50;;;;;;;;;;5033255;28;20234;-70
2023/10/16 09:40:58;;;;;;;0.50;0.50;;;;;;;;;;5033394;28;20206;-71
2023/10/16 09:43:27;;;;;;;1.07;0.53;;;;;;;;;;5033482;28;20179;-69
2023/10/16 09:46:33;;;;;;;1.10;0.70;;;;;;;;;;5033346;28;20176;-71
2023/10/16 09:48:44;;;;;;;0.60;0.60;;;;;;;;;;5033209;28;20198;-70
2023/10/16 09:51:12;;;;;;;0.93;0.50;;;;;;;;;;5033130;28;20207;-70
2023/10/16 09:53:40;;;;;;;0.50;0.50;;;;;;;;;;5033261;28;20185;-70
2023/10/16 09:56:09;;;;;;;2.13;0.70;;;;;;;;;;5033437;28;20576;-71
2023/10/16 09:58:40;;;;;;;1.40;0.90;;;;;;;;;;5032994;28;20199;-70
2023/10/16 10:01:09;;;;;;;0.87;0.70;;;;;;;;;;5033288;28;20210;-70
2023/10/16 10:03:38;;;;;;;0.50;0.50;;;;;;;;;;5031847;28;20640;-72
2023/10/16 10:06:09;;;;;;;2.10;0.40;;;;;;;;;;5033179;28;20650;-70
2023/10/16 10:14:35;;;;;;;2.87;0.73;;;;;;;;;;5017071;28;20210;-71
2023/10/16 10:17:04;;;;;;;1.00;0.60;;;;;;;;;;5032737;28;20187;-71
2023/10/16 10:19:32;;;;;;;0.93;0.80;;;;;;;;;;5032825;28;20202;-71
2023/10/16 10:22:28;;;;;;;1.23;1.03;;;;;;;;;;5032833;28;20206;-71
2023/10/16 10:25:56;;;;;;;1.70;0.80;;;;;;;;;;5032309;28;20220;-71
2023/10/16 10:28:11;;;;;;;1.17;0.60;;;;;;;;;;5025321;28;20194;-71
2023/10/16 10:30:43;;;;;;;1.77;0.70;;;;;;;;;;5032855;28;20670;-72
2023/10/16 10:33:14;;;;;;;1.70;0.93;;;;;;;;;;5033144;28;20204;-72
2023/10/16 10:35:47;;;;;;;0.90;0.80;;;;;;;;;;5033690;28;20612;-70
2023/10/16 10:38:17;;;;;;;0.80;0.70;;;;;;;;;;5036334;28;20681;-70
2023/10/16 10:41:03;;;;;;;1.03;0.93;;;;;;;;;;5013161;28;20182;-71
2023/10/16 10:43:46;;;;;;;1.30;0.70;;;;;;;;;;5015137;28;20188;-70
2023/10/16 10:46:15;;;;;;;0.73;0.60;;;;;;;;;;5015063;28;20183;-71
2023/10/16 10:48:46;;;;;;;0.83;0.80;;;;;;;;;;5019803;28;20192;-71
2023/10/16 10:51:16;;;;;;;0.67;0.67;;;;;;;;;;5022431;28;20259;-70
2023/10/16 10:53:59;;;;;;;1.30;0.80;;;;;;;;;;5020990;28;20236;-72
2023/10/16 10:56:39;;;;;;;3.10;0.70;;;;;;;;;;5014986;28;20176;-73
2023/10/16 10:59:10;;;;;;;3.13;0.63;;;;;;;;;;5014920;28;20622;-71
2023/10/16 11:02:09;;;;;;;0.60;0.60;;;;;;;;;;5015120;28;20643;-73
2023/10/16 11:04:36;;;;;;;1.77;0.67;;;;;;;;;;5014989;28;20197;-71
2023/10/16 11:07:45;;;;;;;0.50;0.50;;;;;;;;;;5014999;28;20187;-71
2023/10/16 11:10:01;;;;;;;1.47;0.77;;;;;;;;;;5010330;28;20214;-72
2023/10/16 11:12:30;;;;;;;0.50;0.50;;;;;;;;;;5014898;28;20227;-70
2023/10/16 11:14:57;;;;;;;1.33;0.60;;;;;;;;;;5014933;28;20176;-71
2023/10/16 11:17:33;;;;;;;1.40;0.80;;;;;;;;;;5026725;28;20601;-72
2023/10/16 11:22:47;;;;;;;0.93;0.50;;;;;;;;;;5034695;28;20187;-71
2023/10/16 11:25:15;;;;;;;1.97;0.50;;;;;;;;;;5019781;28;20177;-70
2023/10/16 11:27:45;;;;;;;1.07;0.60;;;;;;;;;;5015590;28;20230;-72
2023/10/16 11:30:18;;;;;;;0.70;0.70;;;;;;;;;;4994199;28;20188;-73
2023/10/16 11:32:49;;;;;;;0.60;0.60;;;;;;;;;;5013657;28;20725;-70
2023/10/16 11:35:18;;;;;;;0.80;0.60;;;;;;;;;;5013820;28;20185;-71
2023/10/16 11:38:35;;;;;;;1.23;0.80;;;;;;;;;;5013819;28;20646;-71
2023/10/16 11:40:42;;;;;;;2.90;0.70;;;;;;;;;;4990135;28;20225;-71
2023/10/16 11:43:14;;;;;;;1.43;0.67;;;;;;;;;;5023085;28;20298;-71
2023/10/16 11:45:43;;;;;;;0.60;0.60;;;;;;;;;;5032695;28;20186;-71
2023/10/16 11:49:03;;;;;;;1.37;0.60;;;;;;;;;;5024227;28;20204;-71
2023/10/16 11:54:02;;;;;;;3.07;0.60;;;;;;;;;;5005186;28;20608;-71
2023/10/16 11:56:34;;;;;;;1.97;0.60;;;;;;;;;;5013489;28;20657;-70
2023/10/16 11:59:03;;;;;;;0.63;0.63;;;;;;;;;;5029175;28;20648;-71
2023/10/16 12:01:31;;;;;;;0.87;0.63;;;;;;;;;;5031856;28;20192;-69
2023/10/16 12:03:58;;;;;;;1.00;0.70;;;;;;;;;;5032297;28;20623;-71
2023/10/16 12:06:25;;;;;;;3.40;0.70;;;;;;;;;;5020136;28;20188;-71
2023/10/16 12:08:54;;;;;;;0.97;0.67;;;;;;;;;;5020563;28;20197;-70
2023/10/16 12:11:22;;;;;;;1.03;0.70;;;;;;;;;;5033120;28;20253;-70
2023/10/16 12:13:51;;;;;;;1.70;0.70;;;;;;;;;;5031807;28;20227;-73
2023/10/16 12:16:24;;;;;;;1.03;0.73;;;;;;;;;;5030158;28;20537;-71
2023/10/16 12:18:52;;;;;;;0.80;0.70;;;;;;;;;;5013152;28;20562;-70
2023/10/16 12:21:19;;;;;;;2.03;0.90;;;;;;;;;;5013575;28;20265;-69
2023/10/16 12:23:47;;;;;;;2.33;0.70;;;;;;;;;;5021045;28;20186;-70
2023/10/16 12:26:16;;;;;;;1.63;0.70;;;;;;;;;;5020494;28;20605;-70
2023/10/16 12:28:44;;;;;;;0.77;0.60;;;;;;;;;;5013288;28;20199;-72
2023/10/16 12:31:12;;;;;;;0.80;0.70;;;;;;;;;;5013316;28;20213;-70
2023/10/16 12:33:40;;;;;;;1.47;0.70;;;;;;;;;;5012967;28;20242;-70
2023/10/16 12:36:08;;;;;;;0.63;0.60;;;;;;;;;;5013149;28;20195;-70
2023/10/16 12:38:35;;;;;;;0.73;0.67;;;;;;;;;;5013221;28;20191;-69
2023/10/16 12:41:05;;;;;;;0.63;0.63;;;;;;;;;;5012548;28;20651;-69
2023/10/16 12:43:32;;;;;;;1.13;0.70;;;;;;;;;;5013100;28;20214;-71
2023/10/16 12:46:00;;;;;;;0.67;0.63;;;;;;;;;;5013089;28;20225;-69
2023/10/16 12:48:31;;;;;;;2.83;0.70;;;;;;;;;;5028451;28;20191;-70
2023/10/16 12:51:01;;;;;;;1.27;0.80;;;;;;;;;;5032507;28;20296;-70
2023/10/16 12:53:29;;;;;;;0.60;0.60;;;;;;;;;;5031265;28;20213;-70
2023/10/16 12:55:58;;;;;;;0.80;0.67;;;;;;;;;;5020741;28;20194;-70
2023/10/16 12:58:27;;;;;;;0.97;0.67;;;;;;;;;;5011987;28;20242;-69
2023/10/16 13:00:58;;;;;;;0.77;0.60;;;;;;;;;;5012773;28;20188;-70
2023/10/16 13:03:25;;;;;;;1.50;0.60;;;;;;;;;;5012363;28;20193;-69
2023/10/16 13:05:53;;;;;;;0.87;0.70;;;;;;;;;;5012724;28;20675;-70
2023/10/16 13:08:20;;;;;;;1.83;0.70;;;;;;;;;;5012166;28;20199;-69
2023/10/16 13:10:52;;;;;;;0.63;0.60;;;;;;;;;;5013642;28;20267;-69
2023/10/16 13:13:23;;;;;;;1.33;0.77;;;;;;;;;;5013585;28;20229;-71
2023/10/16 13:15:54;;;;;;;0.60;0.60;;;;;;;;;;4994048;28;20199;-72
2023/10/16 13:18:28;;;;;;;0.63;0.63;;;;;;;;;;5012462;28;20195;-71
2023/10/16 13:21:12;;;;;;;0.83;0.60;;;;;;;;;;5012502;28;20184;-69
2023/10/16 13:23:40;;;;;;;1.13;0.67;;;;;;;;;;5013722;28;20200;-70
2023/10/16 13:26:10;;;;;;;0.93;0.60;;;;;;;;;;5013675;28;20193;-71
2023/10/16 13:28:42;;;;;;;2.03;1.00;;;;;;;;;;5003453;28;20183;-70
2023/10/16 13:31:10;;;;;;;1.10;1.00;;;;;;;;;;5033412;28;20218;-70
2023/10/16 13:33:41;;;;;;;2.07;0.73;;;;;;;;;;5033235;28;20239;-72
2023/10/16 13:36:11;;;;;;;1.03;0.80;;;;;;;;;;5033115;28;20188;-69
2023/10/16 13:38:44;;;;;;;1.07;0.60;;;;;;;;;;4993919;28;20195;-71
2023/10/16 13:41:18;;;;;;;1.17;0.80;;;;;;;;;;5010316;28;20219;-71
2023/10/16 13:43:45;;;;;;;1.33;0.80;;;;;;;;;;5013433;28;20580;-70
2023/10/16 13:46:13;;;;;;;1.10;0.80;;;;;;;;;;5013375;28;20183;-71
2023/10/16 13:48:47;;;;;;;1.43;0.60;;;;;;;;;;5013703;28;20659;-69
2023/10/16 13:51:18;;;;;;;0.57;0.57;;;;;;;;;;5030514;28;20226;-70
2023/10/16 13:53:48;;;;;;;1.33;0.80;;;;;;;;;;5032960;28;20187;-70
2023/10/16 13:56:18;;;;;;;1.17;0.83;;;;;;;;;;5033227;28;20217;-70
2023/10/16 13:58:45;;;;;;;2.10;0.90;;;;;;;;;;5016261;28;20577;-69
2023/10/16 14:01:14;;;;;;;1.13;0.77;;;;;;;;;;5013354;28;20187;-69
2023/10/16 14:03:42;;;;;;;1.33;0.80;;;;;;;;;;5013269;28;20180;-71
2023/10/16 14:06:12;;;;;;;1.47;0.80;;;;;;;;;;5014990;28;20537;-70
2023/10/16 14:08:41;;;;;;;1.93;0.70;;;;;;;;;;5033073;28;20239;-69
2023/10/16 14:11:12;;;;;;;1.33;0.60;;;;;;;;;;5020812;28;20207;-69
2023/10/16 14:13:42;;;;;;;1.17;0.90;;;;;;;;;;5017390;28;20230;-70
2023/10/16 14:16:11;;;;;;;0.73;0.70;;;;;;;;;;5017027;28;20195;-70
2023/10/16 14:18:42;;;;;;;3.30;0.70;;;;;;;;;;5016876;28;20198;-70
2023/10/16 14:21:11;;;;;;;2.10;0.97;;;;;;;;;;5031259;28;20215;-70
2023/10/16 14:23:39;;;;;;;1.23;0.80;;;;;;;;;;5036596;28;20200;-70
2023/10/16 14:26:20;;;;;;;5.37;0.93;;;;;;;;;;5036633;28;20190;-70
2023/10/16 14:28:59;;;;;;;4.00;0.73;;;;;;;;;;5036710;28;20192;-69
2023/10/16 14:31:28;;;;;;;1.07;0.70;;;;;;;;;;5019494;28;20207;-71
2023/10/16 14:33:58;;;;;;;2.97;0.87;;;;;;;;;;5017168;28;20185;-69
2023/10/16 14:36:25;;;;;;;1.07;0.93;;;;;;;;;;5016933;28;20194;-69
2023/10/16 14:38:54;;;;;;;1.83;0.80;;;;;;;;;;5016762;28;20206;-70
2023/10/16 14:41:23;;;;;;;2.50;1.00;;;;;;;;;;5032286;28;20257;-70
2023/10/16 14:43:50;;;;;;;4.00;0.90;;;;;;;;;;5035902;28;20626;-69
2023/10/16 14:46:21;;;;;;;1.77;0.80;;;;;;;;;;5036153;28;20175;-69
2023/10/16 14:48:50;;;;;;;1.33;0.90;;;;;;;;;;5036188;28;20183;-71
2023/10/16 14:51:17;;;;;;;3.70;0.90;;;;;;;;;;5035537;28;20230;-71
2023/10/16 14:53:45;;;;;;;1.87;0.90;;;;;;;;;;5036278;28;20203;-70
2023/10/16 14:56:19;;;;;;;1.60;0.90;;;;;;;;;;5035979;28;20560;-71
2023/10/16 14:58:50;;;;;;;1.07;0.80;;;;;;;;;;5035392;28;20652;-70
2023/10/16 15:01:17;;;;;;;2.73;1.00;;;;;;;;;;5035669;28;20273;-70
2023/10/16 15:03:45;;;;;;;2.20;0.87;;;;;;;;;;5036262;28;20632;-70
2023/10/16 15:06:15;;;;;;;2.83;0.90;;;;;;;;;;5036263;28;20187;-70
2023/10/16 15:08:46;;;;;;;3.63;0.90;;;;;;;;;;5031903;28;20195;-70
2023/10/16 15:11:14;;;;;;;1.80;0.97;;;;;;;;;;5015993;28;20659;-70
2023/10/16 15:13:45;;;;;;;1.00;0.80;;;;;;;;;;5016152;28;20183;-71
2023/10/16 15:16:12;;;;;;;2.70;1.20;;;;;;;;;;5017109;28;20275;-70
2023/10/16 15:18:40;;;;;;;5.13;1.13;;;;;;;;;;5016050;28;20273;-70
2023/10/16 15:21:07;;;;;;;2.70;1.00;;;;;;;;;;5015519;28;20244;-70
2023/10/16 15:23:35;;;;;;;2.67;0.90;;;;;;;;;;5016190;28;20179;-71
2023/10/16 15:26:03;;;;;;;4.03;1.20;;;;;;;;;;5015865;28;20176;-71
2023/10/16 15:28:31;;;;;;;2.00;0.97;;;;;;;;;;5016065;28;20621;-70
2023/10/16 15:30:59;;;;;;;2.07;0.90;;;;;;;;;;5027311;28;20241;-70
2023/10/16 15:33:26;;;;;;;4.57;1.10;;;;;;;;;;5035549;28;20531;-69
2023/10/16 15:35:54;;;;;;;2.03;0.80;;;;;;;;;;5034776;28;20231;-70
2023/10/16 15:38:25;;;;;;;2.10;1.00;;;;;;;;;;5035351;28;20178;-71
2023/10/16 15:40:52;;;;;;;2.47;0.90;;;;;;;;;;5035249;28;20186;-70
2023/10/16 15:43:23;;;;;;;0.80;0.80;;;;;;;;;;5033628;28;20408;-72
2023/10/16 15:45:50;;;;;;;2.97;1.10;;;;;;;;;;5035178;28;20191;-72
2023/10/16 15:48:18;;;;;;;1.10;0.90;;;;;;;;;;5035377;28;20174;-70
2023/10/16 15:50:47;;;;;;;3.03;1.37;;;;;;;;;;5034713;28;20582;-71
2023/10/16 15:53:14;;;;;;;1.70;1.00;;;;;;;;;;5035363;28;20176;-71
2023/10/16 15:55:42;;;;;;;2.47;0.87;;;;;;;;;;5035076;28;20186;-71
2023/10/16 15:58:10;;;;;;;1.83;0.90;;;;;;;;;;5033324;28;20214;-70
2023/10/16 16:00:41;;;;;;;4.20;1.00;;;;;;;;;;5015344;28;20182;-72
2023/10/16 16:03:09;;;;;;;3.03;1.27;;;;;;;;;;5015289;28;20190;-70
2023/10/16 16:05:36;;;;;;;4.20;1.20;;;;;;;;;;5017103;28;20182;-70
2023/10/16 16:08:04;;;;;;;1.80;1.23;;;;;;;;;;5028192;28;20254;-71
2023/10/16 16:10:32;;;;;;;2.80;1.20;;;;;;;;;;5015124;28;20261;-71
2023/10/16 16:13:01;;;;;;;2.60;0.90;;;;;;;;;;5015171;28;20191;-70
2023/10/16 16:15:28;;;;;;;3.03;1.27;;;;;;;;;;5014912;28;20254;-70
2023/10/16 16:18:00;;;;;;;2.43;1.40;;;;;;;;;;5014716;28;20648;-71
2023/10/16 16:20:28;;;;;;;1.43;0.90;;;;;;;;;;5021034;28;20181;-71
2023/10/16 16:22:58;;;;;;;2.70;1.20;;;;;;;;;;5034667;28;20589;-70
2023/10/16 16:25:26;;;;;;;4.27;1.03;;;;;;;;;;5034428;28;20189;-70
2023/10/16 16:27:53;;;;;;;2.30;1.13;;;;;;;;;;5034655;28;20213;-72
2023/10/16 16:30:20;;;;;;;3.20;1.10;;;;;;;;;;5029214;28;20207;-71
2023/10/16 16:32:48;;;;;;;3.20;0.97;;;;;;;;;;5012705;28;20306;-70
2023/10/16 16:35:18;;;;;;;4.93;1.20;;;;;;;;;;5014080;28;20179;-71
2023/10/16 16:37:46;;;;;;;3.40;1.00;;;;;;;;;;5014653;28;20192;-69
2023/10/16 16:40:13;;;;;;;3.73;1.10;;;;;;;;;;5018303;28;20648;-70
2023/10/16 16:42:41;;;;;;;2.57;1.07;;;;;;;;;;5034133;28;20755;-70
2023/10/16 16:45:08;;;;;;;4.40;1.10;;;;;;;;;;5034127;28;20174;-70
2023/10/16 16:47:35;;;;;;;3.93;1.27;;;;;;;;;;5034297;28;20181;-69
2023/10/16 16:50:03;;;;;;;2.20;1.00;;;;;;;;;;5034188;28;20182;-71
2023/10/16 16:52:30;;;;;;;2.87;1.20;;;;;;;;;;5033778;28;20296;-69
2023/10/16 16:54:57;;;;;;;4.60;1.20;;;;;;;;;;5033912;28;20174;-69
2023/10/16 16:57:24;;;;;;;3.80;1.33;;;;;;;;;;5033910;28;20184;-70
2023/10/16 16:59:51;;;;;;;4.13;1.30;;;;;;;;;;5031154;28;20200;-69
2023/10/16 17:02:18;;;;;;;5.53;1.27;;;;;;;;;;5033500;28;20219;-69